createdAt,value
2023-05-12T00:00:34.166Z,102076.94
2023-05-12T00:03:15.212Z,102083.78
2023-05-12T00:05:44.894Z,102080.25
2023-05-12T00:08:16.489Z,102080.22
2023-05-12T00:10:46.170Z,102074.19
2023-05-12T00:13:16.352Z,102077.56
2023-05-12T00:15:46.861Z,102078.16
2023-05-12T00:18:16.871Z,102082.56
2023-05-12T00:20:46.750Z,102074.81
2023-05-12T00:23:18.390Z,102081.28
2023-05-12T00:25:48.039Z,102077.06
2023-05-12T00:28:19.886Z,102085.84
2023-05-12T00:30:49.602Z,102085.91
2023-05-12T00:33:19.543Z,102081.38
2023-05-12T00:35:49.319Z,102086.53
2023-05-12T00:38:21.804Z,102082.56
2023-05-12T00:40:51.465Z,102089.31
2023-05-12T00:43:21.450Z,102091.06
2023-05-12T00:45:51.377Z,102091.19
2023-05-12T00:48:21.659Z,102096.31
2023-05-12T00:50:51.410Z,102095.50
2023-05-12T00:53:23.253Z,102097.16
2023-05-12T00:55:53.955Z,102105.00
2023-05-12T00:58:24.072Z,102100.41
2023-05-12T01:00:53.842Z,102102.78
2023-05-12T01:03:24.299Z,102106.06
2023-05-12T01:05:56.887Z,102114.06
2023-05-12T01:08:28.346Z,102110.91
2023-05-12T01:10:58.054Z,102105.31
2023-05-12T01:13:28.398Z,102113.06
2023-05-12T01:16:00.356Z,102108.53
2023-05-12T01:18:30.979Z,102112.94
2023-05-12T01:21:01.772Z,102112.91
2023-05-12T01:23:36.250Z,102110.88
2023-05-12T01:26:08.314Z,102112.47
2023-05-12T01:28:39.545Z,102115.69
2023-05-12T01:31:10.140Z,102120.06
2023-05-12T01:33:41.685Z,102120.31
2023-05-12T01:36:11.548Z,102124.88
2023-05-12T01:38:41.732Z,102129.34
2023-05-12T01:41:13.022Z,102130.22
2023-05-12T01:43:42.982Z,102127.03
2023-05-12T01:46:13.114Z,102126.22
2023-05-12T01:48:44.733Z,102128.88
2023-05-12T01:51:14.549Z,102128.00
2023-05-12T01:53:44.501Z,102134.56
2023-05-12T01:56:15.619Z,102133.47
2023-05-12T01:58:45.876Z,102136.88
2023-05-12T02:01:15.706Z,102131.69
2023-05-12T02:03:45.893Z,102140.50
2023-05-12T02:06:16.637Z,102145.50
2023-05-12T02:08:46.674Z,102139.00
2023-05-12T02:11:18.194Z,102139.59
2023-05-12T02:13:48.377Z,102095.75
2023-05-12T02:16:18.233Z,102142.28
2023-05-12T02:18:49.360Z,102143.13
2023-05-12T02:21:19.227Z,102150.00
2023-05-12T02:23:49.304Z,102149.75
2023-05-12T02:26:21.530Z,102152.50
2023-05-12T02:28:51.710Z,102153.53
2023-05-12T02:31:22.178Z,102148.34
2023-05-12T02:33:52.933Z,102149.88
2023-05-12T02:36:22.693Z,102152.16
2023-05-12T02:38:53.251Z,102149.19
2023-05-12T02:41:24.491Z,102153.63
2023-05-12T02:43:54.710Z,102157.78
2023-05-12T02:46:24.609Z,102158.50
2023-05-12T02:48:55.162Z,102164.81
2023-05-12T02:51:24.983Z,102161.88
2023-05-12T02:53:55.072Z,102158.50
2023-05-12T02:56:26.364Z,102160.81
2023-05-12T02:58:56.496Z,102163.47
2023-05-12T03:01:26.210Z,102166.97
2023-05-12T03:03:56.372Z,102165.19
2023-05-12T03:06:26.362Z,102160.97
2023-05-12T03:08:56.590Z,102169.63
2023-05-12T03:11:27.917Z,102171.19
2023-05-12T03:13:58.165Z,102160.69
2023-05-12T03:16:27.997Z,102161.94
2023-05-12T03:18:58.228Z,102168.66
2023-05-12T03:21:28.823Z,102169.59
2023-05-12T03:23:59.114Z,102168.47
2023-05-12T03:26:30.849Z,102161.66
2023-05-12T03:29:01.119Z,102167.69
2023-05-12T03:31:31.218Z,102165.19
2023-05-12T03:34:01.682Z,102165.31
2023-05-12T03:36:31.869Z,102163.25
2023-05-12T03:39:03.405Z,102164.44
2023-05-12T03:41:36.923Z,102162.69
2023-05-12T03:44:08.841Z,102170.97
2023-05-12T03:46:38.593Z,102173.03
2023-05-12T03:49:10.301Z,102176.03
2023-05-12T03:51:40.613Z,102172.06
2023-05-12T03:54:24.627Z,102173.00
2023-05-12T03:56:55.706Z,102172.31
2023-05-12T03:59:26.132Z,102171.84
2023-05-12T04:01:55.901Z,102171.44
2023-05-12T04:04:28.615Z,102174.66
2023-05-12T04:07:05.497Z,102178.25
2023-05-12T04:09:35.554Z,102171.94
2023-05-12T04:12:08.236Z,102179.22
2023-05-12T04:14:43.248Z,102182.03
2023-05-12T04:17:13.316Z,102181.06
2023-05-12T04:19:43.601Z,102176.22
2023-05-12T04:22:13.373Z,102180.34
2023-05-12T04:24:43.715Z,102186.97
2023-05-12T04:27:15.153Z,102181.06
2023-05-12T04:29:45.693Z,102183.56
2023-05-12T04:32:15.559Z,102184.00
2023-05-12T04:34:45.833Z,102181.28
2023-05-12T04:37:15.547Z,102183.16
2023-05-12T04:39:46.158Z,102150.69
2023-05-12T04:42:17.187Z,102183.09
2023-05-12T04:44:47.616Z,102179.22
2023-05-12T04:47:17.428Z,102186.53
2023-05-12T04:49:47.505Z,102187.56
2023-05-12T04:52:17.582Z,102191.91
2023-05-12T04:54:47.748Z,102185.97
2023-05-12T04:57:18.926Z,102186.34
2023-05-12T04:59:49.998Z,102185.00
2023-05-12T05:02:19.708Z,102176.78
2023-05-12T05:04:50.066Z,102186.91
2023-05-12T05:07:20.330Z,102193.84
2023-05-12T05:09:50.306Z,102192.47
2023-05-12T05:12:21.777Z,102185.09
2023-05-12T05:14:52.041Z,102187.09
2023-05-12T05:17:22.191Z,102189.22
2023-05-12T05:19:57.542Z,102194.03
2023-05-12T05:22:32.010Z,102187.31
2023-05-12T05:25:02.242Z,102186.59
2023-05-12T05:27:33.544Z,102185.06
2023-05-12T05:30:03.781Z,102181.59
2023-05-12T05:32:34.016Z,102185.97
2023-05-12T05:35:04.304Z,102191.28
2023-05-12T05:37:36.592Z,102191.38
2023-05-12T05:40:08.052Z,102195.84
2023-05-12T05:42:39.376Z,102191.44
2023-05-12T05:45:10.182Z,102189.63
2023-05-12T05:47:41.285Z,102193.16
2023-05-12T05:50:13.512Z,102200.22
2023-05-12T05:52:44.793Z,102205.53
2023-05-12T05:55:15.339Z,102193.19
2023-05-12T05:57:47.322Z,102201.16
2023-05-12T06:00:18.323Z,102210.06
2023-05-12T06:02:51.882Z,102212.69
2023-05-12T06:05:24.098Z,102200.19
2023-05-12T06:07:53.928Z,102211.75
2023-05-12T06:10:24.379Z,102214.44
2023-05-12T06:12:56.039Z,102204.56
2023-05-12T06:15:26.271Z,102210.00
2023-05-12T06:17:56.016Z,102215.91
2023-05-12T06:20:26.261Z,102211.44
2023-05-12T06:22:56.149Z,102208.66
2023-05-12T06:25:26.278Z,102216.75
2023-05-12T06:27:57.838Z,102220.22
2023-05-12T06:30:27.872Z,102222.94
2023-05-12T06:32:57.793Z,102225.34
2023-05-12T06:35:28.028Z,102221.56
2023-05-12T06:37:57.761Z,102226.25
2023-05-12T06:40:27.908Z,102226.34
2023-05-12T06:42:59.264Z,102227.19
2023-05-12T06:45:29.907Z,102220.00
2023-05-12T06:48:03.766Z,102236.00
2023-05-12T06:50:33.914Z,102224.38
2023-05-12T06:53:03.953Z,102227.81
2023-05-12T06:55:34.514Z,102227.22
2023-05-12T06:58:05.752Z,102223.09
2023-05-12T07:00:35.774Z,102223.63
2023-05-12T07:03:05.696Z,102224.47
2023-05-12T07:05:36.009Z,102220.91
2023-05-12T07:08:06.078Z,102219.75
2023-05-12T07:10:36.297Z,102217.75
2023-05-12T07:13:07.602Z,102214.13
2023-05-12T07:15:37.931Z,102209.22
2023-05-12T07:18:07.831Z,102214.03
2023-05-12T07:20:38.539Z,102209.63
2023-05-12T07:23:08.363Z,102216.94
2023-05-12T07:25:38.492Z,102207.34
2023-05-12T07:28:09.600Z,102209.72
2023-05-12T07:30:40.285Z,102214.00
2023-05-12T07:33:10.312Z,102215.59
2023-05-12T07:35:40.361Z,102221.09
2023-05-12T07:38:10.524Z,102220.53
2023-05-12T07:40:40.690Z,102207.84
2023-05-12T07:43:11.823Z,102211.22
2023-05-12T07:45:42.131Z,102217.06
2023-05-12T07:48:12.336Z,102213.13
2023-05-12T07:50:42.627Z,102215.66
2023-05-12T07:53:12.322Z,102214.91
2023-05-12T07:55:43.965Z,102217.31
2023-05-12T07:58:15.425Z,102211.06
2023-05-12T08:00:45.852Z,102207.72
2023-05-12T08:03:16.632Z,102200.03
2023-05-12T08:05:46.954Z,102207.91
2023-05-12T08:08:17.623Z,102205.88
2023-05-12T08:10:47.716Z,102208.94
2023-05-12T08:13:19.162Z,102202.44
2023-05-12T08:15:51.172Z,102208.97
2023-05-12T08:18:21.305Z,102214.41
2023-05-12T08:20:51.763Z,102203.06
2023-05-12T08:23:21.562Z,102205.81
2023-05-12T08:25:51.886Z,102217.59
2023-05-12T08:28:23.309Z,102211.47
2023-05-12T08:30:53.331Z,102211.72
2023-05-12T08:33:23.192Z,102213.22
2023-05-12T08:35:54.245Z,102213.34
2023-05-12T08:38:24.061Z,102213.22
2023-05-12T08:41:00.197Z,102211.56
2023-05-12T08:43:39.752Z,102211.31
2023-05-12T08:46:09.936Z,102206.72
2023-05-12T08:48:45.613Z,102204.84
2023-05-12T08:51:43.284Z,102218.22
2023-05-12T08:54:14.771Z,102207.53
2023-05-12T08:59:20.231Z,102202.59
2023-05-12T09:01:51.484Z,102210.72
2023-05-12T09:04:21.273Z,102207.97
2023-05-12T09:06:53.590Z,102213.03
2023-05-12T09:09:25.088Z,102211.03
2023-05-12T09:11:58.243Z,102207.22
2023-05-12T09:14:30.847Z,102193.81
2023-05-12T09:17:02.831Z,102204.06
2023-05-12T09:19:32.949Z,102201.38
2023-05-12T09:22:03.079Z,102190.88
2023-05-12T09:24:35.738Z,102194.38
2023-05-12T09:27:06.081Z,102192.81
2023-05-12T09:29:42.526Z,102194.44
2023-05-12T09:32:18.211Z,102186.34
2023-05-12T09:34:53.087Z,102207.09
2023-05-12T09:37:31.678Z,102205.56
2023-05-12T09:40:02.181Z,102195.13
2023-05-12T09:42:32.828Z,102197.00
2023-05-12T09:45:04.233Z,102195.97
2023-05-12T09:47:38.092Z,102188.06
2023-05-12T09:50:10.502Z,102184.84
2023-05-12T09:52:41.316Z,102192.88
2023-05-12T09:55:11.839Z,102189.25
2023-05-12T09:57:42.454Z,102180.94
2023-05-12T10:00:33.239Z,102186.47
2023-05-12T10:03:11.313Z,102176.13
2023-05-12T10:05:45.794Z,102171.84
2023-05-12T10:08:19.011Z,102170.34
2023-05-12T10:10:51.003Z,102167.28
2023-05-12T10:13:21.719Z,102182.63
2023-05-12T10:15:53.710Z,102182.56
2023-05-12T10:18:24.018Z,102172.09
2023-05-12T10:20:54.480Z,102172.44
2023-05-12T10:23:25.020Z,102171.66
2023-05-12T10:25:58.752Z,102169.53
2023-05-12T10:28:28.946Z,102169.63
2023-05-12T10:31:00.858Z,102173.19
2023-05-12T10:33:31.128Z,102166.97
2023-05-12T10:36:01.066Z,102159.53
2023-05-12T10:38:37.475Z,102166.25
2023-05-12T10:41:08.260Z,102160.34
2023-05-12T10:43:42.402Z,102169.06
2023-05-12T10:46:17.669Z,102160.66
2023-05-12T10:48:56.170Z,102165.16
2023-05-12T10:51:28.630Z,102166.28
2023-05-12T10:54:01.300Z,102139.03
2023-05-12T10:56:32.589Z,102166.81
2023-05-12T10:59:18.628Z,102162.44
2023-05-12T11:02:01.756Z,102149.63
2023-05-12T11:04:41.097Z,102156.00
2023-05-12T11:07:12.090Z,102152.91
2023-05-12T11:09:53.561Z,102149.47
2023-05-12T11:12:32.540Z,102152.13
2023-05-12T11:15:03.828Z,102158.47
2023-05-12T11:17:35.298Z,102153.44
2023-05-12T11:20:05.792Z,102159.13
2023-05-12T11:22:35.597Z,102162.75
2023-05-12T11:25:12.762Z,102166.28
2023-05-12T11:27:47.700Z,102167.31
2023-05-12T11:30:18.569Z,102163.97
2023-05-12T11:32:50.086Z,102162.47
2023-05-12T11:35:21.073Z,102162.75
2023-05-12T11:37:51.760Z,102150.84
2023-05-12T11:40:22.205Z,102154.31
2023-05-12T11:42:54.369Z,102153.47
2023-05-12T11:45:26.067Z,102158.69
2023-05-12T11:48:07.631Z,102172.91
2023-05-12T11:50:39.770Z,102160.34
2023-05-12T11:53:11.780Z,102152.19
2023-05-12T11:55:49.266Z,102160.94
2023-05-12T11:58:23.194Z,102154.38
2023-05-12T12:00:53.395Z,102159.34
2023-05-12T12:03:25.200Z,102166.16
2023-05-12T12:06:02.044Z,102162.63
2023-05-12T12:08:32.224Z,102161.31
2023-05-12T12:11:04.459Z,102161.34
2023-05-12T12:13:34.297Z,102166.09
2023-05-12T12:16:04.427Z,102158.34
2023-05-12T12:18:35.541Z,102159.44
2023-05-12T12:21:05.607Z,102156.91
2023-05-12T12:23:44.089Z,102158.34
2023-05-12T12:26:21.384Z,102156.72
2023-05-12T12:28:51.510Z,102161.72
2023-05-12T12:31:21.641Z,102153.59
2023-05-12T12:33:52.889Z,102150.06
2023-05-12T12:36:23.321Z,102145.88
2023-05-12T12:38:53.042Z,102143.63
2023-05-12T12:41:23.341Z,102145.88
2023-05-12T12:43:52.931Z,102149.72
2023-05-12T12:46:23.024Z,102144.38
2023-05-12T12:48:54.341Z,102138.03
2023-05-12T12:51:28.423Z,102138.94
2023-05-12T12:54:02.881Z,102145.50
2023-05-12T12:56:33.323Z,102150.22
2023-05-12T12:59:03.179Z,102126.81
2023-05-12T13:01:34.485Z,102124.25
2023-05-12T13:04:06.016Z,102122.16
2023-05-12T13:06:37.051Z,102122.16
2023-05-12T13:09:06.852Z,102122.91
2023-05-12T13:11:37.140Z,102115.94
2023-05-12T13:14:07.259Z,102121.75
2023-05-12T13:16:38.065Z,102114.31
2023-05-12T13:19:09.413Z,102105.34
2023-05-12T13:21:39.535Z,102111.56
2023-05-12T13:24:09.488Z,102114.00
2023-05-12T13:26:39.610Z,102102.19
2023-05-12T13:29:09.275Z,102101.84
2023-05-12T13:31:41.533Z,102104.75
2023-05-12T13:34:12.674Z,102110.75
2023-05-12T13:36:42.957Z,102104.63
2023-05-12T13:39:12.948Z,102097.31
2023-05-12T13:41:43.017Z,102091.16
2023-05-12T13:44:13.031Z,102093.00
2023-05-12T13:46:43.279Z,102093.94
2023-05-12T13:49:14.407Z,102084.91
2023-05-12T13:51:44.434Z,102094.31
2023-05-12T13:54:14.257Z,102096.03
2023-05-12T13:56:44.190Z,102099.28
2023-05-12T13:59:14.482Z,102099.28
2023-05-12T14:01:45.225Z,102093.13
2023-05-12T14:04:16.528Z,102092.72
2023-05-12T14:06:47.495Z,102070.38
2023-05-12T14:09:17.305Z,102083.66
2023-05-12T14:11:47.375Z,102076.59
2023-05-12T14:14:17.155Z,102087.88
2023-05-12T14:16:47.283Z,102071.03
2023-05-12T14:19:18.601Z,102076.84
2023-05-12T14:21:48.677Z,102069.34
2023-05-12T14:24:18.486Z,102080.28
2023-05-12T14:26:49.143Z,102083.69
2023-05-12T14:29:19.116Z,102069.44
2023-05-12T14:31:49.419Z,102078.63
2023-05-12T14:34:20.814Z,102071.69
2023-05-12T14:36:51.025Z,102075.97
2023-05-12T14:39:21.918Z,102079.09
2023-05-12T14:41:51.991Z,102075.59
2023-05-12T14:44:21.752Z,102080.78
2023-05-12T14:46:53.210Z,102081.13
2023-05-12T14:49:24.326Z,102079.31
2023-05-12T14:51:54.439Z,102078.34
2023-05-12T14:54:26.019Z,102079.44
2023-05-12T14:56:56.820Z,102078.38
2023-05-12T14:59:26.703Z,102079.31
2023-05-12T15:01:56.781Z,102077.78
2023-05-12T15:04:28.280Z,102082.00
2023-05-12T15:06:58.212Z,102087.00
2023-05-12T15:09:27.846Z,102086.78
2023-05-12T15:12:13.800Z,102073.88
2023-05-12T15:14:43.651Z,102078.91
2023-05-12T15:17:14.063Z,102085.38
2023-05-12T15:19:45.455Z,102082.63
2023-05-12T15:22:15.721Z,102085.03
2023-05-12T15:24:45.479Z,102076.22
2023-05-12T15:27:15.603Z,102079.63
2023-05-12T15:29:45.473Z,102071.38
2023-05-12T15:32:16.140Z,102074.22
2023-05-12T15:34:47.222Z,102074.44
2023-05-12T15:37:17.572Z,102070.78
2023-05-12T15:39:47.304Z,102065.59
2023-05-12T15:42:22.450Z,102057.41
2023-05-12T15:44:56.219Z,102066.25
2023-05-12T15:47:26.214Z,102067.09
2023-05-12T15:49:57.543Z,102065.38
2023-05-12T15:52:28.025Z,102063.06
2023-05-12T15:54:57.863Z,102066.19
2023-05-12T15:57:28.028Z,102063.72
2023-05-12T16:00:01.291Z,102061.91
2023-05-12T16:02:43.092Z,102063.22
2023-05-12T16:05:18.005Z,102069.09
2023-05-12T16:07:49.759Z,102063.13
2023-05-12T16:10:19.565Z,102058.81
2023-05-12T16:12:49.859Z,102056.44
2023-05-12T16:15:20.120Z,102055.22
2023-05-12T16:17:50.565Z,102061.66
2023-05-12T16:20:21.699Z,102064.28
2023-05-12T16:22:53.682Z,102063.09
2023-05-12T16:25:23.862Z,102060.72
2023-05-12T16:27:54.075Z,102056.75
2023-05-12T16:30:23.715Z,102058.75
2023-05-12T16:32:53.853Z,102053.47
2023-05-12T16:35:27.776Z,102058.88
2023-05-12T16:37:59.596Z,102059.19
2023-05-12T16:40:29.706Z,102059.13
2023-05-12T16:43:00.032Z,102055.72
2023-05-12T16:45:29.742Z,102064.34
2023-05-12T16:47:59.684Z,102057.56
2023-05-12T16:50:31.024Z,102066.09
2023-05-12T16:53:01.086Z,102063.19
2023-05-12T16:55:31.113Z,102060.94
2023-05-12T16:58:01.946Z,102071.09
2023-05-12T17:00:31.804Z,102064.78
2023-05-12T17:03:03.750Z,102064.00
2023-05-12T17:05:36.126Z,102060.09
2023-05-12T17:08:06.323Z,102070.06
2023-05-12T17:10:36.923Z,102073.91
2023-05-12T17:13:07.308Z,102065.25
2023-05-12T17:15:38.881Z,102083.41
2023-05-12T17:18:09.445Z,102076.75
2023-05-12T17:20:40.963Z,102076.84
2023-05-12T17:23:11.892Z,102074.06
2023-05-12T17:25:41.785Z,102076.19
2023-05-12T17:28:12.384Z,102071.78
2023-05-12T17:30:43.485Z,102066.81
2023-05-12T17:33:15.776Z,102070.47
2023-05-12T17:36:03.729Z,102084.03
2023-05-12T17:38:40.256Z,102079.69
2023-05-12T17:41:10.250Z,102086.16
2023-05-12T17:43:40.342Z,102092.63
2023-05-12T17:46:09.974Z,102082.97
2023-05-12T17:48:41.438Z,102084.72
2023-05-12T17:51:15.338Z,102095.75
2023-05-12T17:53:46.585Z,102089.53
2023-05-12T17:56:16.867Z,102096.03
2023-05-12T17:58:47.467Z,102095.53
2023-05-12T18:01:17.305Z,102097.44
2023-05-12T18:03:47.916Z,102100.22
2023-05-12T18:06:19.210Z,102109.28
2023-05-12T18:08:49.320Z,102093.44
2023-05-12T18:11:18.848Z,102107.88
2023-05-12T18:13:51.380Z,102109.09
2023-05-12T18:16:29.073Z,102113.72
2023-05-12T18:19:00.448Z,102123.56
2023-05-12T18:21:31.850Z,102118.31
2023-05-12T18:24:04.483Z,102117.69
2023-05-12T18:26:42.766Z,102124.09
2023-05-12T18:29:13.933Z,102123.34
2023-05-12T18:31:44.519Z,102133.06
2023-05-12T18:34:14.502Z,102130.34
2023-05-12T18:36:49.182Z,102125.22
2023-05-12T18:39:23.091Z,102137.00
2023-05-12T18:41:53.961Z,102140.72
2023-05-12T18:44:25.135Z,102148.97
2023-05-12T18:46:56.563Z,102149.19
2023-05-12T18:49:28.316Z,102143.06
2023-05-12T18:52:06.294Z,102152.94
2023-05-12T18:54:39.365Z,102113.94
2023-05-12T18:57:09.994Z,102151.28
2023-05-12T18:59:40.043Z,102160.16
2023-05-12T19:02:12.393Z,102161.97
2023-05-12T19:04:44.380Z,102169.16
2023-05-12T19:07:18.992Z,102174.53
2023-05-12T19:09:56.014Z,102173.63
2023-05-12T19:12:30.078Z,102173.66
2023-05-12T19:15:03.214Z,102176.31
2023-05-12T19:17:35.829Z,102179.84
2023-05-12T19:20:08.026Z,102175.41
2023-05-12T19:22:41.721Z,102177.19
2023-05-12T19:25:18.845Z,102185.19
2023-05-12T19:27:51.183Z,102182.53
2023-05-12T19:30:24.088Z,102186.97
2023-05-12T19:32:55.224Z,102190.50
2023-05-12T19:35:28.031Z,102189.56
2023-05-12T19:38:01.988Z,102194.84
2023-05-12T19:40:32.092Z,102193.03
2023-05-12T19:43:03.105Z,102193.91
2023-05-12T19:45:33.685Z,102201.88
2023-05-12T19:48:04.780Z,102197.41
2023-05-12T19:50:35.136Z,102201.81
2023-05-12T19:53:10.288Z,102194.72
2023-05-12T19:55:42.639Z,102201.78
2023-05-12T19:58:15.172Z,102202.63
2023-05-12T20:00:46.615Z,102200.78
2023-05-12T20:03:19.618Z,102198.06
2023-05-12T20:05:51.880Z,102207.78
2023-05-12T20:08:27.091Z,102204.19
2023-05-12T20:10:58.424Z,102206.78
2023-05-12T20:13:31.750Z,102211.19
2023-05-12T20:16:06.192Z,102202.22
2023-05-12T20:18:36.985Z,102208.38
2023-05-12T20:21:07.125Z,102211.03
2023-05-12T20:23:50.010Z,102204.88
2023-05-12T20:26:31.810Z,102208.31
2023-05-12T20:29:05.665Z,102215.25
2023-05-12T20:31:38.330Z,102212.56
2023-05-12T20:34:11.177Z,102210.66
2023-05-12T20:36:41.398Z,102220.34
2023-05-12T20:39:16.523Z,102214.97
2023-05-12T20:41:51.247Z,102214.81
2023-05-12T20:44:22.308Z,102219.13
2023-05-12T20:46:55.537Z,102217.34
2023-05-12T20:49:28.879Z,102224.41
2023-05-12T20:52:01.792Z,102218.97
2023-05-12T20:54:37.015Z,102218.84
2023-05-12T20:57:11.170Z,102230.28
2023-05-12T20:59:42.594Z,102225.06
2023-05-12T21:02:14.138Z,102224.81
2023-05-12T21:04:45.268Z,102221.19
2023-05-12T21:07:16.901Z,102231.03
2023-05-12T21:09:49.548Z,102228.25
2023-05-12T21:12:21.031Z,102236.06
2023-05-12T21:14:53.018Z,102232.53
2023-05-12T21:17:24.651Z,102239.56
2023-05-12T21:19:55.408Z,102243.00
2023-05-12T21:22:27.422Z,102239.31
2023-05-12T21:25:00.528Z,102237.38
2023-05-12T21:27:32.782Z,102240.75
2023-05-12T21:30:03.582Z,102246.00
2023-05-12T21:32:33.717Z,102242.47
2023-05-12T21:35:03.902Z,102244.97
2023-05-12T21:37:34.743Z,102245.75
2023-05-12T21:40:07.079Z,102252.75
2023-05-12T21:42:38.089Z,102248.31
2023-05-12T21:45:08.462Z,102250.06
2023-05-12T21:47:38.663Z,102244.69
2023-05-12T21:50:08.569Z,102249.84
2023-05-12T21:52:38.581Z,102253.16
2023-05-12T21:55:10.628Z,102259.28
2023-05-12T21:57:40.950Z,102263.41
2023-05-12T22:00:13.105Z,102262.44
2023-05-12T22:02:45.582Z,102258.97
2023-05-12T22:05:15.726Z,102264.41
2023-05-12T22:07:45.909Z,102259.16
2023-05-12T22:10:17.250Z,102259.41
2023-05-12T22:12:47.425Z,102260.13
2023-05-12T22:15:18.225Z,102258.81
2023-05-12T22:17:48.961Z,102253.31
2023-05-12T22:20:19.342Z,102262.97
2023-05-12T22:22:49.603Z,102267.19
2023-05-12T22:25:20.804Z,102274.03
2023-05-12T22:27:50.915Z,102262.44
2023-05-12T22:30:21.956Z,102258.91
2023-05-12T22:32:52.135Z,102271.19
2023-05-12T22:35:21.885Z,102276.34
2023-05-12T22:37:51.991Z,102278.13
2023-05-12T22:40:23.535Z,102279.09
2023-05-12T22:42:53.576Z,102271.84
2023-05-12T22:45:23.202Z,102274.38
2023-05-12T22:47:53.653Z,102272.47
2023-05-12T22:50:23.987Z,102279.47
2023-05-12T22:52:57.487Z,102271.50
2023-05-12T22:55:31.051Z,102277.53
2023-05-12T22:58:01.517Z,102279.28
2023-05-12T23:00:31.288Z,102280.09
2023-05-12T23:03:01.481Z,102273.88
2023-05-12T23:05:31.294Z,102281.88
2023-05-12T23:08:03.181Z,102280.28
2023-05-12T23:10:34.315Z,102281.03
2023-05-12T23:13:04.299Z,102289.56
2023-05-12T23:15:33.990Z,102286.72
2023-05-12T23:18:04.012Z,102281.66
2023-05-12T23:20:34.221Z,102287.59
2023-05-12T23:23:04.427Z,102284.00
2023-05-12T23:25:37.126Z,102275.97
2023-05-12T23:28:07.675Z,102284.56
2023-05-12T23:30:37.358Z,102281.78
2023-05-12T23:33:07.749Z,102287.91
2023-05-12T23:35:37.457Z,102280.00
2023-05-12T23:38:07.738Z,102278.31
2023-05-12T23:40:39.507Z,102284.38
2023-05-12T23:43:09.809Z,102281.59
2023-05-12T23:45:39.529Z,102283.44
2023-05-12T23:48:09.680Z,102278.22
2023-05-12T23:50:39.407Z,102274.72
2023-05-12T23:53:09.637Z,102274.66
2023-05-12T23:55:40.751Z,102276.22
2023-05-12T23:58:11.127Z,102277.88
